Time;durP1;ratioP1;P1;durP2;ratioP2;P2;SDS_P1;SDS_P2;PMS_P1;PMS_P2;Temp;Humidity;BMP_temperature;BMP_pressure;BME280_temperature;BME280_humidity;BME280_pressure;Samples;Min_cycle;Max_cycle;Signal;HPM_P1;HPM_P2
2020/12/17 00:00:57;;;;;;;23.90;16.70;;;6.40;93.50;;;6.00;88.22;98417.03;5122598;27;20991;-75
2020/12/17 00:03:25;;;;;;;21.10;15.33;;;6.40;93.60;;;6.02;88.18;98428.19;5129861;27;20661;-74
2020/12/17 00:05:54;;;;;;;22.20;15.80;;;6.40;93.70;;;5.99;88.30;98421.38;5128244;27;20645;-75
2020/12/17 00:08:22;;;;;;;25.93;15.93;;;6.50;94.00;;;5.98;87.97;98414.53;5120364;27;20673;-75
2020/12/17 00:10:49;;;;;;;24.10;16.03;;;6.40;93.60;;;5.98;88.47;98414.53;5117170;27;20725;-73
2020/12/17 00:13:18;;;;;;;25.77;16.27;;;6.40;93.70;;;6.00;88.30;98414.44;5119432;27;20733;-74
2020/12/17 00:15:46;;;;;;;23.73;15.70;;;6.50;93.80;;;6.03;88.35;98422.06;5128301;27;20635;-74
2020/12/17 00:18:13;;;;;;;20.93;15.70;;;6.50;93.90;;;6.01;88.40;98419.56;5128222;27;20724;-73
2020/12/17 00:20:41;;;;;;;23.73;15.97;;;6.50;94.00;;;6.00;88.49;98425.66;5122841;27;20660;-73
2020/12/17 00:23:09;;;;;;;23.53;16.27;;;6.40;93.90;;;6.01;88.81;98423.91;5122099;27;20645;-74
2020/12/17 00:25:37;;;;;;;24.73;16.50;;;6.40;93.90;;;6.02;88.56;98418.66;5116047;27;20645;-73
2020/12/17 00:28:04;;;;;;;23.83;15.90;;;6.50;93.90;;;6.02;87.75;98418.66;5122817;27;20724;-75
2020/12/17 00:30:32;;;;;;;23.83;16.47;;;6.40;93.80;;;6.02;88.39;98408.31;5110795;27;20695;-74
2020/12/17 00:32:59;;;;;;;22.47;16.10;;;6.40;93.80;;;5.99;88.38;98408.44;5119788;27;20653;-75
2020/12/17 00:35:27;;;;;;;22.43;15.27;;;6.40;93.70;;;6.01;88.17;98418.72;5126864;27;20645;-73
2020/12/17 00:37:55;;;;;;;22.43;15.70;;;6.40;93.70;;;5.99;88.02;98420.56;5100596;27;21205;-75
2020/12/17 00:40:23;;;;;;;21.20;14.90;;;6.40;93.70;;;5.97;88.12;98412.84;5128146;27;20743;-75
2020/12/17 00:42:51;;;;;;;23.33;16.40;;;6.40;93.70;;;5.96;88.60;98415.50;5121221;27;20639;-74
2020/12/17 00:45:19;;;;;;;24.27;16.90;;;6.40;93.70;;;5.95;87.41;98408.66;5117237;27;20676;-73
2020/12/17 00:47:52;;;;;;;25.43;16.83;;;6.40;93.70;;;5.95;88.07;98404.31;5114036;28;20619;-75
2020/12/17 00:50:21;;;;;;;25.57;15.77;;;6.40;93.60;;;5.95;88.15;98408.66;5116636;27;20634;-73
2020/12/17 00:52:48;;;;;;;22.33;14.50;;;6.40;93.70;;;5.88;88.08;98413.28;5116801;27;21050;-74
2020/12/17 00:55:16;;;;;;;21.77;15.93;;;6.40;93.70;;;5.88;88.03;98412.41;5112032;28;20630;-74
2020/12/17 00:57:44;;;;;;;22.70;15.87;;;6.30;93.70;;;5.91;88.30;98409.69;5095385;28;20729;-72
2020/12/17 01:00:12;;;;;;;24.43;16.40;;;6.30;93.80;;;5.91;88.16;98404.50;5126175;28;20984;-73
2020/12/17 01:02:39;;;;;;;22.70;15.10;;;6.30;93.80;;;5.90;88.51;98405.44;5106141;28;20730;-74
2020/12/17 01:05:07;;;;;;;21.83;15.63;;;6.30;93.80;;;5.91;88.49;98400.19;5118550;28;20754;-72
2020/12/17 01:07:34;;;;;;;28.90;16.40;;;6.40;94.00;;;5.93;88.18;98411.31;5113764;28;21214;-73
2020/12/17 01:10:04;;;;;;;21.53;15.57;;;6.30;93.90;;;5.88;88.98;98405.50;5129631;28;20633;-75
2020/12/17 01:12:32;;;;;;;29.40;15.93;;;6.30;94.10;;;5.87;88.69;98405.56;5119578;28;20749;-73
2020/12/17 01:15:00;;;;;;;25.40;16.03;;;6.30;94.40;;;5.90;89.72;98405.44;5105743;28;20637;-74
2020/12/17 01:17:29;;;;;;;23.47;16.17;;;6.30;94.90;;;5.93;89.37;98407.88;5112990;28;20741;-76
2020/12/17 01:19:56;;;;;;;24.20;16.53;;;6.30;94.60;;;5.91;89.59;98412.28;5122880;28;20614;-75
2020/12/17 01:22:24;;;;;;;22.17;16.00;;;6.30;94.60;;;5.89;89.65;98414.94;5125852;28;20633;-75
2020/12/17 01:24:52;;;;;;;23.87;16.13;;;6.20;94.70;;;5.86;89.81;98414.25;5119012;28;20736;-74
2020/12/17 01:27:20;;;;;;;25.60;16.40;;;6.20;94.70;;;5.86;89.67;98416.81;5113532;28;20629;-73
2020/12/17 01:29:49;;;;;;;21.40;15.47;;;6.20;94.90;;;5.86;89.79;98414.25;5116797;28;20625;-73
2020/12/17 01:32:17;;;;;;;22.73;15.90;;;6.30;95.00;;;5.87;89.85;98421.09;5104547;28;20655;-75
2020/12/17 01:34:45;;;;;;;22.03;15.00;;;6.30;94.90;;;5.88;90.14;98422.75;5130157;28;20713;-75
2020/12/17 01:37:21;;;;;;;20.70;14.67;;;6.30;94.90;;;5.92;89.65;98419.13;5124547;28;20679;-75
2020/12/17 01:39:49;;;;;;;21.80;15.00;;;6.30;94.80;;;5.90;89.57;98413.19;5104433;28;22012;-74
2020/12/17 01:42:17;;;;;;;21.43;15.70;;;6.30;94.70;;;5.93;89.03;98415.66;5114093;28;20732;-74
2020/12/17 01:44:46;;;;;;;21.03;14.50;;;6.30;94.50;;;5.89;89.18;98419.28;5126854;28;21048;-74
2020/12/17 01:47:13;;;;;;;20.00;13.83;;;6.30;94.50;;;5.91;89.45;98420.03;5128866;28;20646;-74
2020/12/17 01:49:42;;;;;;;20.10;14.30;;;6.30;94.40;;;5.90;88.79;98419.22;5123159;27;20668;-74
2020/12/17 01:52:10;;;;;;;20.73;15.07;;;6.30;94.40;;;5.90;88.84;98415.78;5106518;27;20645;-76
2020/12/17 01:54:37;;;;;;;19.53;13.10;;;6.30;94.40;;;5.85;88.71;98421.16;5108641;27;20724;-75
2020/12/17 01:57:06;;;;;;;21.40;13.47;;;6.30;94.20;;;5.88;89.07;98423.63;5121439;27;20645;-75
2020/12/17 01:59:46;;;;;;;20.57;15.17;;;6.30;94.30;;;5.83;88.84;98420.41;5115312;27;20701;-75
2020/12/17 02:02:16;;;;;;;18.93;13.93;;;6.30;94.20;;;5.79;89.19;98425.78;5126114;27;20641;-76
2020/12/17 02:04:46;;;;;;;21.17;14.43;;;6.20;94.20;;;5.77;88.96;98430.16;5123258;27;21195;-75
2020/12/17 02:07:13;;;;;;;20.07;13.87;;;6.20;94.20;;;5.75;89.50;98437.16;5119363;27;20637;-75
2020/12/17 02:09:41;;;;;;;19.90;13.70;;;6.20;94.20;;;5.74;88.95;98430.31;5112109;27;20668;-76
2020/12/17 02:12:09;;;;;;;21.80;13.83;;;6.20;94.20;;;5.74;88.96;98435.47;5110740;27;20632;-75
2020/12/17 02:14:36;;;;;;;20.43;14.47;;;6.20;94.10;;;5.73;88.67;98439.78;5107062;28;20625;-76
2020/12/17 02:17:04;;;;;;;22.40;15.77;;;6.20;94.00;;;5.72;88.75;98434.69;5091150;28;21001;-74
2020/12/17 02:19:31;;;;;;;22.00;14.43;;;6.20;94.00;;;5.70;87.96;98433.91;5122812;27;22908;-75
2020/12/17 02:22:00;;;;;;;19.10;13.20;;;6.20;93.90;;;5.71;88.23;98445.91;5120820;27;20657;-73
2020/12/17 02:24:28;;;;;;;18.20;13.30;;;6.20;93.80;;;5.69;88.26;98456.34;5123089;27;20657;-74
2020/12/17 02:26:56;;;;;;;22.03;13.70;;;6.20;93.70;;;5.67;88.08;98450.41;5129976;27;20741;-75
2020/12/17 02:29:23;;;;;;;20.50;13.70;;;6.10;93.60;;;5.65;87.94;98456.53;5125632;27;20625;-75
2020/12/17 02:31:51;;;;;;;17.00;13.13;;;6.20;93.40;;;5.65;87.08;98456.53;5106355;27;20630;-74
2020/12/17 02:34:20;;;;;;;17.67;12.77;;;6.10;93.30;;;5.63;87.59;98454.00;5106336;28;20623;-74
2020/12/17 02:36:47;;;;;;;20.73;13.40;;;6.10;93.30;;;5.62;87.49;98448.91;5116154;27;20737;-73
2020/12/17 02:39:15;;;;;;;19.80;14.20;;;6.10;93.20;;;5.59;87.50;98454.22;5125820;27;21019;-74
2020/12/17 02:41:43;;;;;;;21.27;13.67;;;6.10;93.20;;;5.59;87.13;98463.72;5117086;27;20703;-73
2020/12/17 02:44:11;;;;;;;21.20;14.07;;;6.00;93.30;;;5.56;88.15;98456.94;5127170;27;20638;-73
2020/12/17 02:46:38;;;;;;;18.77;13.53;;;6.10;93.40;;;5.54;87.43;98457.91;5121328;27;20760;-77
2020/12/17 02:49:06;;;;;;;19.40;14.23;;;6.00;93.30;;;5.47;87.17;98452.16;5124086;27;20632;-73
2020/12/17 02:51:33;;;;;;;20.10;14.23;;;6.00;93.20;;;5.41;87.65;98442.09;5100697;27;21445;-73
2020/12/17 02:54:01;;;;;;;22.03;13.70;;;5.90;93.10;;;5.39;87.36;98433.53;5133297;27;20640;-74
2020/12/17 02:56:28;;;;;;;20.23;13.97;;;5.90;93.10;;;5.35;87.56;98434.59;5110434;27;20984;-73
2020/12/17 02:58:57;;;;;;;19.97;14.10;;;5.90;93.00;;;5.31;87.42;98438.19;5131409;27;20637;-74
2020/12/17 03:01:24;;;;;;;19.47;13.97;;;5.80;93.00;;;5.33;87.47;98441.56;5115302;27;21192;-74
2020/12/17 03:03:52;;;;;;;19.43;13.80;;;5.80;93.00;;;5.32;86.84;98441.63;5109167;27;20700;-74
2020/12/17 03:06:19;;;;;;;22.60;15.10;;;5.80;92.90;;;5.27;87.22;98438.41;5131539;27;21061;-74
2020/12/17 03:08:47;;;;;;;21.07;14.13;;;5.80;93.20;;;5.26;88.22;98445.31;5113971;27;20673;-74
2020/12/17 03:11:15;;;;;;;19.97;13.53;;;5.70;93.40;;;5.27;88.45;98456.50;5118407;27;20691;-73
2020/12/17 03:13:43;;;;;;;16.80;13.37;;;5.80;93.60;;;5.25;88.82;98459.13;5119460;27;20630;-74
2020/12/17 03:16:11;;;;;;;16.57;12.60;;;5.70;93.70;;;5.26;87.61;98471.16;5123826;27;20664;-74
2020/12/17 03:18:39;;;;;;;20.00;13.40;;;5.70;93.60;;;5.24;88.12;98469.53;5121831;27;20627;-73
2020/12/17 03:21:06;;;;;;;17.27;12.70;;;5.70;93.50;;;5.19;88.08;98456.81;5120680;27;20626;-73
2020/12/17 03:23:34;;;;;;;18.13;13.17;;;5.70;93.30;;;5.19;88.02;98461.16;5080322;28;21071;-73
2020/12/17 03:26:01;;;;;;;26.80;15.50;;;5.70;93.40;;;5.18;87.55;98460.28;5126568;27;20656;-73
2020/12/17 03:28:29;;;;;;;65.13;31.17;;;5.70;93.50;;;5.15;87.90;98459.59;5103771;28;21260;-74
2020/12/17 03:30:56;;;;;;;19.67;13.33;;;5.60;93.40;;;5.13;87.64;98461.41;5105217;28;20636;-74
2020/12/17 03:33:25;;;;;;;19.70;13.50;;;5.60;93.30;;;5.12;87.46;98458.88;5108834;27;20632;-73
2020/12/17 03:35:52;;;;;;;17.67;12.70;;;5.60;93.00;;;5.12;86.60;98466.63;5106836;27;20792;-74
2020/12/17 03:38:38;;;;;;;20.37;13.80;;;5.60;92.80;;;5.08;87.21;98472.81;5114050;27;20621;-74
2020/12/17 03:41:06;;;;;;;19.90;13.77;;;5.60;92.80;;;5.09;87.27;98471.91;5119668;27;21207;-73
2020/12/17 03:43:34;;;;;;;18.70;13.70;;;5.60;93.00;;;5.06;87.32;98469.47;5122353;27;20712;-72
2020/12/17 03:46:01;;;;;;;18.97;13.07;;;5.50;93.00;;;5.04;87.60;98466.94;5122466;27;20733;-73
2020/12/17 03:48:30;;;;;;;18.97;13.30;;;5.50;93.10;;;4.93;87.51;98463.09;5117265;27;20728;-73
2020/12/17 03:50:57;;;;;;;20.37;13.80;;;5.40;93.30;;;4.93;88.50;98461.38;5118404;27;20709;-73
2020/12/17 03:53:25;;;;;;;19.53;12.70;;;5.40;93.60;;;4.86;86.92;98459.09;5103931;28;20717;-74
2020/12/17 03:55:53;;;;;;;18.20;12.03;;;5.30;92.90;;;4.81;86.62;98454.09;5108038;27;20626;-73
2020/12/17 03:58:20;;;;;;;19.70;13.20;;;5.30;92.60;;;4.80;85.82;98464.50;5125799;27;20630;-73
2020/12/17 04:00:48;;;;;;;19.93;13.73;;;5.30;92.50;;;4.78;85.98;98463.69;5105084;27;20625;-74
2020/12/17 04:03:16;;;;;;;15.80;12.17;;;5.30;92.60;;;4.69;88.54;98464.94;5123071;27;20665;-74
2020/12/17 04:05:44;;;;;;;17.90;11.60;;;5.20;93.00;;;4.71;87.96;98463.13;5119046;27;20678;-74
2020/12/17 04:08:12;;;;;;;19.63;12.37;;;5.20;93.40;;;4.76;88.70;98462.94;5116000;27;20737;-74
2020/12/17 04:10:39;;;;;;;17.83;12.90;;;5.20;93.60;;;4.76;88.53;98461.19;5131388;27;20625;-73
2020/12/17 04:13:07;;;;;;;17.23;12.43;;;5.20;93.50;;;4.79;88.21;98462.81;5121384;27;20731;-74
2020/12/17 04:15:35;;;;;;;17.20;12.17;;;5.30;93.30;;;4.78;87.52;98468.88;5120695;27;20634;-73
2020/12/17 04:18:02;;;;;;;21.33;12.50;;;5.30;93.00;;;4.80;87.38;98465.34;5124425;27;21239;-73
2020/12/17 04:20:30;;;;;;;17.93;11.30;;;5.40;93.10;;;4.82;87.75;98471.28;5127986;27;20624;-73
2020/12/17 04:22:58;;;;;;;17.03;12.27;;;5.30;93.00;;;4.79;86.24;98455.06;5123456;27;20614;-73
2020/12/17 04:25:26;;;;;;;15.73;11.70;;;5.30;92.80;;;4.79;86.94;98452.47;5127667;27;21274;-73
2020/12/17 04:27:53;;;;;;;18.80;12.13;;;5.20;92.70;;;4.80;86.55;98452.41;5112208;27;20728;-73
2020/12/17 04:30:21;;;;;;;18.10;11.63;;;5.20;92.80;;;4.77;87.55;98462.88;5125471;27;21087;-71
2020/12/17 04:32:49;;;;;;;19.77;11.97;;;5.30;92.90;;;4.76;86.25;98466.34;5117431;27;20740;-72
2020/12/17 04:35:17;;;;;;;16.50;12.00;;;5.30;92.80;;;4.77;87.11;98457.72;5111766;27;21053;-71
2020/12/17 04:37:44;;;;;;;21.65;15.35;;;5.30;92.80;;;4.81;86.30;98469.59;5124600;27;20748;-72
2020/12/17 04:40:12;;;;;;;17.17;12.77;;;5.30;92.80;;;4.85;86.53;98471.16;5112543;28;20200;-72
2020/12/17 04:42:42;;;;;;;15.40;11.50;;;5.30;92.70;;;4.88;86.15;98476.19;5112840;27;20638;-72
2020/12/17 04:45:09;;;;;;;17.30;12.20;;;5.40;93.00;;;4.90;85.83;98474.41;5113685;27;21208;-72
2020/12/17 04:47:39;;;;;;;18.00;11.87;;;5.40;92.60;;;4.89;86.01;98475.31;5121375;27;21291;-75
2020/12/17 04:50:09;;;;;;;17.70;12.50;;;5.40;92.50;;;4.86;86.56;98472.84;5130039;27;21222;-73
2020/12/17 04:52:39;;;;;;;16.60;12.00;;;5.40;92.40;;;4.83;85.91;98466.97;5129138;27;20625;-73
2020/12/17 04:55:09;;;;;;;19.30;13.70;;;5.30;92.40;;;4.84;86.73;98460.88;5119199;27;20660;-72
2020/12/17 04:57:45;;;;;;;17.17;11.97;;;5.40;92.50;;;4.78;86.03;98459.41;5125277;28;20724;-73
2020/12/17 05:00:14;;;;;;;18.47;11.77;;;5.30;92.50;;;4.76;87.13;98465.50;5130730;27;20634;-72
2020/12/17 05:02:47;;;;;;;17.70;12.20;;;5.30;92.40;;;4.76;87.02;98462.94;5130159;28;20632;-72
2020/12/17 05:05:16;;;;;;;19.00;12.60;;;5.30;92.80;;;4.71;86.37;98457.94;5131514;28;20939;-71
2020/12/17 05:07:43;;;;;;;19.43;12.70;;;5.20;92.10;;;4.72;85.72;98463.94;5114239;28;20682;-71
2020/12/17 05:10:11;;;;;;;19.30;12.10;;;5.20;92.20;;;4.73;86.67;98460.47;5093077;28;20629;-72
2020/12/17 05:12:39;;;;;;;15.47;11.57;;;5.30;92.30;;;4.74;85.98;98454.41;5118783;28;20669;-72
2020/12/17 05:15:07;;;;;;;18.00;12.00;;;5.30;92.30;;;4.71;85.89;98463.13;5119627;28;21141;-72
2020/12/17 05:17:34;;;;;;;17.70;11.47;;;5.20;92.20;;;4.72;86.11;98456.19;5099684;28;20622;-72
2020/12/17 05:20:02;;;;;;;17.20;11.50;;;5.20;92.40;;;4.72;86.15;98453.59;5120890;27;20647;-73
2020/12/17 05:22:29;;;;;;;15.67;11.87;;;5.20;92.30;;;4.69;86.02;98464.94;5117004;28;20630;-72
2020/12/17 05:24:58;;;;;;;18.87;12.57;;;5.20;92.40;;;4.68;85.60;98460.66;5122672;27;21026;-72
2020/12/17 05:27:27;;;;;;;19.73;12.27;;;5.20;92.20;;;4.69;86.10;98471.81;5115952;28;20760;-73
2020/12/17 05:29:57;;;;;;;18.77;13.77;;;5.20;92.40;;;4.66;86.75;98479.72;5130088;27;20677;-71
2020/12/17 05:32:28;;;;;;;18.00;12.27;;;5.20;92.40;;;4.64;86.18;98476.31;5130892;27;20628;-72
2020/12/17 05:34:55;;;;;;;17.33;12.17;;;5.20;92.20;;;4.67;85.86;98476.19;5133317;27;20617;-72
2020/12/17 05:37:23;;;;;;;16.23;11.83;;;5.20;92.10;;;4.62;85.77;98483.31;5097136;28;20644;-73
2020/12/17 05:40:00;;;;;;;19.20;12.77;;;5.10;92.30;;;4.57;85.62;98487.81;5108632;27;20714;-72
2020/12/17 05:42:28;;;;;;;19.33;13.10;;;5.10;92.20;;;4.59;86.19;98492.91;5105995;27;20736;-72
2020/12/17 05:44:57;;;;;;;40.07;22.03;;;5.10;92.30;;;4.58;85.79;98486.88;5132896;27;20628;-71
2020/12/17 05:47:24;;;;;;;22.33;12.67;;;5.10;92.20;;;4.56;86.47;98491.28;5114770;27;20652;-71
2020/12/17 05:49:52;;;;;;;17.23;12.03;;;5.10;92.20;;;4.56;85.48;98496.44;5112082;27;20633;-71
2020/12/17 05:52:21;;;;;;;23.67;13.30;;;5.10;92.20;;;4.55;85.59;98492.16;5118157;27;20675;-71
2020/12/17 05:55:02;;;;;;;22.23;13.20;;;5.10;92.20;;;4.54;85.83;98490.50;5123272;27;20630;-72
2020/12/17 05:57:30;;;;;;;17.47;12.90;;;5.10;92.30;;;4.53;86.79;98498.31;5101360;28;20617;-71
2020/12/17 06:00:02;;;;;;;17.33;12.70;;;5.10;92.40;;;4.54;86.34;98506.00;5106004;27;20716;-71
2020/12/17 06:02:34;;;;;;;17.97;13.33;;;5.10;92.50;;;4.52;86.06;98507.78;5125313;27;20630;-71
2020/12/17 06:05:05;;;;;;;16.83;12.43;;;5.00;92.40;;;4.53;85.61;98509.47;5101952;27;20662;-72
2020/12/17 06:07:48;;;;;;;17.50;11.80;;;5.10;92.30;;;4.52;85.39;98512.94;5133246;27;21703;-72
2020/12/17 06:10:24;;;;;;;19.90;13.00;;;5.00;92.20;;;4.50;86.10;98521.66;5125808;27;21084;-71
2020/12/17 06:12:53;;;;;;;18.80;12.80;;;5.00;92.30;;;4.48;86.60;98526.88;5105401;28;20665;-71
2020/12/17 06:15:24;;;;;;;17.00;12.07;;;5.00;92.20;;;4.45;85.29;98521.84;5096734;27;20645;-72
2020/12/17 06:17:54;;;;;;;18.03;12.80;;;5.00;92.20;;;4.46;85.77;98523.50;5127687;27;20731;-72
2020/12/17 06:20:24;;;;;;;18.53;12.67;;;5.00;92.10;;;4.44;85.84;98520.16;5127603;27;21250;-72
2020/12/17 06:22:57;;;;;;;19.57;13.70;;;4.90;92.00;;;4.40;86.40;98535.81;5130670;27;20628;-72
2020/12/17 06:25:27;;;;;;;20.27;14.10;;;4.90;92.20;;;4.37;86.28;98534.16;5108209;27;20721;-72
2020/12/17 06:27:55;;;;;;;17.40;12.87;;;4.90;92.30;;;4.36;86.26;98535.09;5099832;27;20751;-71
2020/12/17 06:30:25;;;;;;;16.40;12.27;;;4.90;92.30;;;4.35;86.68;98541.13;5119212;27;20661;-72
2020/12/17 06:32:57;;;;;;;18.90;13.37;;;4.90;92.40;;;4.39;87.03;98544.44;5114897;27;20673;-71
2020/12/17 06:35:44;;;;;;;16.40;11.33;;;4.90;92.50;;;4.42;87.27;98555.50;5103441;27;20640;-71
2020/12/17 06:38:15;;;;;;;16.43;11.50;;;4.90;92.70;;;4.46;87.03;98551.91;5129454;27;21135;-72
2020/12/17 06:40:44;;;;;;;18.37;12.13;;;4.90;92.80;;;4.47;87.50;98558.75;5121116;27;20641;-72
2020/12/17 06:43:12;;;;;;;17.20;12.30;;;5.00;93.00;;;4.52;87.72;98562.00;5115539;27;20690;-71
2020/12/17 06:45:41;;;;;;;15.50;11.40;;;5.00;93.00;;;4.57;88.27;98564.41;5118908;27;20634;-72
2020/12/17 06:48:31;;;;;;;16.20;11.00;;;5.00;93.10;;;4.60;88.04;98570.31;5126439;27;20689;-70
2020/12/17 06:51:00;;;;;;;17.83;11.90;;;5.10;93.30;;;4.65;87.28;98573.56;5118271;27;20627;-72
2020/12/17 06:53:38;;;;;;;17.87;11.77;;;5.10;93.30;;;4.66;87.09;98574.41;5117699;27;20625;-71
2020/12/17 06:56:06;;;;;;;14.50;11.20;;;5.10;93.30;;;4.65;87.82;98577.91;5119540;27;20656;-71
2020/12/17 06:58:34;;;;;;;18.50;11.30;;;5.10;93.30;;;4.65;87.59;98581.31;5134559;27;20747;-72
2020/12/17 07:01:23;;;;;;;19.00;12.37;;;5.10;93.40;;;4.70;87.97;98581.97;5126100;27;20727;-73
2020/12/17 07:03:52;;;;;;;16.10;11.80;;;5.10;93.70;;;4.72;87.64;98582.75;5107051;27;21243;-72
2020/12/17 07:06:21;;;;;;;17.47;12.43;;;5.20;93.50;;;4.73;88.39;98582.69;5098043;27;20645;-73
2020/12/17 07:08:51;;;;;;;17.80;12.13;;;5.20;93.60;;;4.75;88.40;98580.06;5117294;27;20625;-72
2020/12/17 07:11:49;;;;;;;18.37;13.20;;;5.20;93.60;;;4.83;87.78;98594.38;5122695;27;21339;-73
2020/12/17 07:14:20;;;;;;;19.53;14.30;;;5.30;93.60;;;4.86;87.71;98596.84;5116284;27;20636;-72
2020/12/17 07:16:55;;;;;;;20.73;12.90;;;5.30;93.70;;;4.89;88.19;98598.47;5118111;27;20728;-73
2020/12/17 07:19:25;;;;;;;20.67;13.33;;;5.40;94.10;;;4.92;88.03;98606.13;5120799;27;20637;-72
2020/12/17 07:21:59;;;;;;;16.07;11.83;;;5.30;93.70;;;4.93;87.68;98607.78;5098372;27;20737;-71
2020/12/17 07:24:31;;;;;;;18.73;12.40;;;5.30;93.70;;;4.95;87.85;98611.19;5119579;27;21831;-72
2020/12/17 07:27:09;;;;;;;16.70;11.93;;;5.40;93.80;;;4.98;87.96;98616.22;5129465;27;20687;-74
2020/12/17 07:29:41;;;;;;;17.47;13.40;;;5.40;93.80;;;5.01;88.78;98616.09;5113572;27;20624;-74
2020/12/17 07:32:34;;;;;;;17.50;12.23;;;5.40;93.80;;;5.02;87.81;98620.34;5085605;28;20632;-73
2020/12/17 07:35:20;;;;;;;25.03;13.07;;;5.50;93.80;;;5.03;88.43;98625.47;5116004;27;20628;-76
2020/12/17 07:37:52;;;;;;;17.60;12.37;;;5.50;93.90;;;5.09;88.11;98630.41;5122535;27;20748;-75
2020/12/17 07:40:36;;;;;;;18.83;14.07;;;5.50;93.80;;;5.09;88.13;98632.16;5116478;27;21003;-74
2020/12/17 07:43:11;;;;;;;24.63;13.83;;;5.60;93.90;;;5.12;87.89;98630.28;5117141;27;20633;-73
2020/12/17 07:45:51;;;;;;;24.87;15.60;;;5.60;93.90;;;5.13;88.23;98635.41;5116371;27;20736;-72
2020/12/17 07:48:50;;;;;;;21.10;14.20;;;5.60;93.90;;;5.14;88.48;98638.81;5098136;27;20706;-72
2020/12/17 07:51:31;;;;;;;24.40;15.43;;;5.60;93.90;;;5.16;88.53;98643.03;5046935;27;20629;-73
2020/12/17 07:54:03;;;;;;;20.23;14.57;;;5.60;93.80;;;5.15;88.22;98643.91;5133434;27;20632;-72
2020/12/17 07:56:31;;;;;;;22.73;15.33;;;5.60;93.80;;;5.19;88.70;98644.66;5124361;27;20712;-71
2020/12/17 07:59:04;;;;;;;26.17;16.33;;;5.60;93.80;;;5.22;88.44;98641.97;5099358;28;20621;-73
2020/12/17 08:01:32;;;;;;;27.77;17.37;;;5.60;93.90;;;5.27;88.60;98651.22;5117450;27;20637;-72
2020/12/17 08:04:01;;;;;;;22.70;15.77;;;5.70;93.90;;;5.32;88.45;98649.31;5125427;27;20665;-72
2020/12/17 08:06:29;;;;;;;28.47;16.20;;;5.70;93.90;;;5.36;88.16;98650.84;5113217;27;20700;-72
2020/12/17 08:09:00;;;;;;;20.70;15.30;;;5.80;93.90;;;5.37;88.00;98657.72;5119229;27;20975;-71
2020/12/17 08:11:38;;;;;;;27.30;17.47;;;5.80;94.00;;;5.43;88.42;98652.31;5101668;27;20622;-73
2020/12/17 08:14:08;;;;;;;21.20;16.43;;;5.80;94.00;;;5.47;88.18;98660.78;5126176;27;21081;-72
2020/12/17 08:16:35;;;;;;;22.40;16.13;;;5.90;94.00;;;5.51;88.83;98665.78;5115379;27;20626;-71
2020/12/17 08:19:04;;;;;;;20.17;15.20;;;5.90;94.10;;;5.57;88.54;98665.53;5125010;27;20657;-71
2020/12/17 08:21:32;;;;;;;19.40;14.50;;;6.00;94.10;;;5.63;88.15;98666.13;5112139;27;20682;-73
2020/12/17 08:24:00;;;;;;;16.20;12.80;;;6.00;94.10;;;5.66;88.61;98663.41;5117933;27;20638;-73
2020/12/17 08:26:29;;;;;;;29.87;19.70;;;6.10;94.00;;;5.68;88.76;98666.81;5128839;27;20744;-71
2020/12/17 08:28:57;;;;;;;26.80;16.73;;;6.10;94.10;;;5.74;88.13;98670.91;5115156;27;21183;-73
2020/12/17 08:31:27;;;;;;;24.83;16.43;;;6.10;93.90;;;5.76;88.12;98669.13;5125419;27;20637;-75
2020/12/17 08:33:56;;;;;;;22.80;15.97;;;6.20;93.80;;;5.77;87.69;98675.97;5109439;27;20614;-72
2020/12/17 08:36:29;;;;;;;20.20;14.50;;;6.10;93.90;;;5.76;88.06;98674.31;5123663;27;20723;-71
2020/12/17 08:39:01;;;;;;;22.27;15.60;;;6.10;93.70;;;5.80;87.58;98673.25;5117050;27;20617;-71
2020/12/17 08:41:48;;;;;;;20.30;14.40;;;6.20;93.70;;;5.83;88.71;98667.97;5115521;27;20633;-72
2020/12/17 08:44:21;;;;;;;20.00;15.27;;;6.20;94.00;;;5.91;88.58;98677.09;5102921;27;20682;-71
2020/12/17 08:46:54;;;;;;;30.27;17.10;;;6.30;94.30;;;6.01;88.81;98674.97;5126142;27;20661;-71
2020/12/17 08:49:25;;;;;;;21.53;15.50;;;6.40;94.30;;;6.07;88.70;98674.72;5102778;27;20632;-72
2020/12/17 08:51:54;;;;;;;20.10;14.77;;;6.40;94.40;;;6.13;88.46;98668.41;5109484;27;20633;-71
2020/12/17 08:54:26;;;;;;;22.20;15.07;;;6.50;94.30;;;6.20;88.04;98684.50;5097182;27;21264;-71
2020/12/17 08:56:59;;;;;;;22.07;15.30;;;6.50;94.10;;;6.27;88.02;98676.44;5118473;27;20720;-71
2020/12/17 08:59:27;;;;;;;30.20;17.50;;;6.60;94.20;;;6.33;88.57;98683.94;5101706;28;20641;-72
2020/12/17 09:01:56;;;;;;;77.73;28.93;;;6.70;94.20;;;6.40;87.60;98687.94;5118517;27;20630;-72
2020/12/17 09:04:24;;;;;;;55.97;24.87;;;6.70;94.00;;;6.39;87.99;98686.28;5094507;28;21203;-71
2020/12/17 09:06:55;;;;;;;64.70;31.20;;;6.80;93.90;;;6.41;87.52;98692.22;5112459;27;21439;-72
2020/12/17 09:09:26;;;;;;;60.63;30.00;;;6.80;93.90;;;6.46;87.82;98694.63;5094374;28;20614;-73
2020/12/17 09:12:09;;;;;;;25.00;15.43;;;6.80;93.90;;;6.56;88.03;98698.50;5123172;28;21251;-73
2020/12/17 09:14:39;;;;;;;36.53;21.43;;;6.90;94.30;;;6.78;88.94;98702.69;5125642;27;20665;-72
2020/12/17 09:17:14;;;;;;;21.67;15.23;;;7.10;94.70;;;7.13;89.09;98697.63;5117261;28;21169;-71
2020/12/17 09:19:45;;;;;;;20.77;16.33;;;7.30;94.80;;;7.38;87.03;98704.22;5130725;28;20772;-70
2020/12/17 09:22:18;;;;;;;22.50;14.80;;;7.60;94.70;;;7.41;86.88;98701.47;5121719;28;20740;-71
2020/12/17 09:24:48;;;;;;;44.90;21.90;;;7.70;94.10;;;7.34;87.67;98707.88;5122396;28;20630;-72
2020/12/17 09:27:21;;;;;;;49.27;27.60;;;7.70;94.10;;;7.32;87.12;98708.84;5123397;28;20680;-71
2020/12/17 09:30:09;;;;;;;30.40;19.23;;;7.70;93.90;;;7.27;87.77;98705.63;5114238;28;21191;-73
2020/12/17 09:32:40;;;;;;;33.70;19.80;;;7.70;94.00;;;7.27;87.52;98714.22;5101844;28;20694;-73
2020/12/17 09:35:12;;;;;;;36.03;23.40;;;7.60;93.90;;;7.26;87.87;98715.16;5110420;28;20606;-71
2020/12/17 09:37:57;;;;;;;30.23;21.33;;;7.70;94.10;;;7.26;88.64;98715.16;5131129;28;20642;-71
2020/12/17 09:40:27;;;;;;;23.13;18.77;;;7.60;94.20;;;7.20;87.99;98722.34;5117052;27;20637;-68
2020/12/17 09:43:07;;;;;;;26.87;19.57;;;7.60;94.10;;;7.27;89.54;98719.41;5103862;28;20985;-72
2020/12/17 09:45:36;;;;;;;25.20;18.00;;;7.60;94.50;;;7.55;88.61;98727.66;5116344;28;21014;-71
2020/12/17 09:48:19;;;;;;;42.57;31.93;;;7.80;94.80;;;7.75;87.17;98730.16;5109120;28;21007;-72
2020/12/17 09:50:56;;;;;;;33.00;26.40;;;8.00;94.60;;;7.96;87.28;98732.56;5123434;28;20732;-73
2020/12/17 09:53:26;;;;;;;34.37;25.27;;;8.20;94.70;;;8.18;89.04;98730.66;5106349;28;20631;-72
2020/12/17 09:55:55;;;;;;;35.47;28.50;;;8.40;95.20;;;8.34;87.10;98734.19;5109662;28;20626;-71
2020/12/17 09:58:23;;;;;;;35.27;28.30;;;8.60;94.80;;;8.45;87.81;98740.53;5124251;28;20630;-73
2020/12/17 10:00:52;;;;;;;33.37;25.20;;;8.70;94.50;;;8.64;87.51;98736.91;5108389;28;20630;-72
2020/12/17 10:03:21;;;;;;;30.33;23.97;;;8.80;94.90;;;8.82;88.47;98732.56;5110142;28;20723;-71
2020/12/17 10:05:51;;;;;;;33.03;26.63;;;9.00;95.10;;;8.79;88.29;98740.50;5116362;28;21294;-72
2020/12/17 10:08:20;;;;;;;28.47;20.20;;;9.10;94.30;;;8.81;87.07;98738.66;5112977;28;21024;-72
2020/12/17 10:10:50;;;;;;;23.70;18.27;;;9.10;94.00;;;8.83;86.69;98729.06;5111888;28;20632;-72
2020/12/17 10:13:18;;;;;;;30.77;23.07;;;9.10;93.80;;;9.05;88.17;98738.25;5120942;27;20630;-72
2020/12/17 10:15:46;;;;;;;17.57;13.87;;;9.30;94.60;;;9.26;87.52;98739.72;5116059;27;20628;-74
2020/12/17 10:18:14;;;;;;;12.70;10.50;;;9.50;94.50;;;9.51;85.97;98735.75;5115963;27;20629;-73
2020/12/17 10:20:43;;;;;;;24.50;18.77;;;9.70;94.10;;;9.70;86.58;98734.66;5120287;27;20609;-72
2020/12/17 10:23:11;;;;;;;19.13;15.27;;;9.90;94.20;;;9.88;85.67;98744.09;5128707;27;20709;-72
2020/12/17 10:25:39;;;;;;;17.33;12.40;;;10.00;93.00;;;10.05;84.62;98744.84;5115033;27;20719;-74
2020/12/17 10:28:07;;;;;;;10.10;8.90;;;10.20;92.50;;;10.21;84.16;98755.25;5111211;27;20660;-73
2020/12/17 10:30:36;;;;;;;9.10;7.30;;;10.40;92.20;;;10.34;82.99;98750.13;5115575;28;20625;-73
2020/12/17 10:33:05;;;;;;;7.20;5.53;;;10.60;91.70;;;10.54;82.11;98762.00;5126417;27;20640;-72